Flag for USA

Past Weather in Cleburne, Texas, USA — Yesterday and Last 2 Weeks

Currently: 45 °F. Overcast. (Weather station: Cleburne Municipal Airport, USA). See more current weather

Past Weather in Cleburne — Graph

°F

Cleburne Temperature Yesterday

Maximum temperature yesterday: 50 °F (at 5:15 pm)
Minimum temperature yesterday: 36 °F (at 6:55 am)
Average temperature yesterday: 41 °F

High & Low Weather Summary for the Past Weeks

 TemperatureHumidityPressure
High91 °F (Oct 14, 3:15 pm)100% (Oct 15, 7:55 am)30.41 "Hg (Oct 15, 7:55 am)
Low36 °F (Oct 26, 11:35 pm)20% (Oct 16, 3:55 pm)29.75 "Hg (Oct 15, 3:55 am)
Average60 °F77%30.04 "Hg
* Reported Oct 14 5:15 am — Oct 29 5:35 am, Cleburne. Weather by CustomWeather, © 2020

Note: Actual official high and low records may vary slightly from our data, if they occured in-between our weather recording intervals... More about our weather records

Cleburne Weather History for the Previous 24 Hours

Scroll right to see more
 ConditionsComfort  
Time TempWeatherWind HumidityBarometerVisibility
5:35 am
Thu, Oct 29
43 °FOvercast.12 mph81%29.91 "Hg10 mi
5:15 am43 °FOvercast.12 mph81%29.90 "Hg10 mi
4:55 am41 °FOvercast.8 mph87%29.90 "Hg10 mi
4:35 am41 °FOvercast.8 mph87%29.90 "Hg10 mi
4:15 am41 °FOvercast.7 mph87%29.89 "Hg10 mi
3:55 am41 °FOvercast.9 mph87%29.90 "Hg10 mi
3:35 am41 °FOvercast.12 mph87%29.89 "Hg10 mi
3:15 am39 °FMostly cloudy.8 mph87%29.90 "Hg10 mi
2:55 am39 °FPassing clouds.6 mph87%29.89 "Hg10 mi
2:35 am39 °FPartly cloudy.7 mph87%29.88 "Hg10 mi
2:15 am39 °FPartly cloudy.7 mph87%29.89 "Hg10 mi
1:55 am39 °FPassing clouds.8 mph87%29.89 "Hg10 mi
1:35 am37 °FClear.7 mph93%29.89 "Hg10 mi
1:15 am37 °FClear.6 mph93%29.88 "Hg10 mi
12:55 am37 °FClear.6 mph93%29.88 "Hg10 mi
12:15 am37 °FClear.6 mph93%29.89 "Hg10 mi
11:55 pm
Wed, Oct 28
37 °FClear.6 mph93%29.90 "Hg10 mi
11:35 pm37 °FClear.5 mph93%29.90 "Hg10 mi
11:15 pm39 °FClear.5 mph87%29.89 "Hg10 mi
10:55 pm37 °FClear.5 mph93%29.89 "Hg10 mi
10:35 pm39 °FClear.No wind93%29.90 "Hg10 mi
10:15 pm39 °FPassing clouds.5 mph87%29.90 "Hg10 mi
9:55 pm41 °FPassing clouds.5 mph87%29.91 "Hg10 mi
9:35 pm41 °FPassing clouds.3 mph87%29.91 "Hg10 mi
9:15 pm41 °FPassing clouds.5 mph81%29.91 "Hg10 mi
8:55 pm41 °FClear.5 mph87%29.92 "Hg10 mi
8:35 pm43 °FClear.7 mph81%29.92 "Hg10 mi
8:15 pm43 °FClear.7 mph81%29.92 "Hg10 mi
7:55 pm45 °FClear.8 mph76%29.92 "Hg10 mi
7:35 pm45 °FClear.7 mph76%29.91 "Hg10 mi
6:55 pm46 °FClear.12 mph71%29.89 "Hg10 mi
6:35 pm48 °FSunny.10 mph71%29.89 "Hg10 mi
6:15 pm48 °FSunny.9 mph71%29.89 "Hg10 mi
5:55 pm50 °FSunny.13 mph67%29.89 "Hg10 mi
5:35 pm50 °FSunny.15 mph67%29.89 "Hg10 mi
5:15 pm50 °FPassing clouds.14 mph67%29.89 "Hg10 mi
4:55 pm48 °FPartly sunny.14 mph76%29.89 "Hg10 mi
4:35 pm48 °FPartly sunny.15 mph76%29.89 "Hg10 mi
4:15 pm48 °FOvercast.13 mph76%29.89 "Hg10 mi
3:55 pm45 °FOvercast.14 mph81%29.90 "Hg10 mi
3:35 pm45 °FOvercast.18 mph81%29.91 "Hg10 mi
3:15 pm43 °FOvercast.16 mph87%29.91 "Hg10 mi
2:35 pm43 °FOvercast.17 mph87%29.91 "Hg10 mi
2:15 pm43 °FOvercast.14 mph87%29.92 "Hg10 mi
1:55 pm41 °FOvercast.16 mph93%29.95 "Hg10 mi
1:35 pm41 °FMore clouds than sun.13 mph87%29.96 "Hg10 mi
1:15 pm41 °FLow clouds.16 mph93%29.97 "Hg10 mi
12:55 pm41 °FPartly sunny.12 mph93%29.97 "Hg10 mi
12:35 pm39 °FMostly cloudy.16 mph100%29.97 "Hg10 mi
12:15 pm39 °FMostly cloudy.16 mph100%29.98 "Hg10 mi
11:55 am39 °FMostly cloudy.16 mph93%29.98 "Hg10 mi
11:35 am39 °FMostly cloudy.17 mph93%29.97 "Hg10 mi
10:55 am39 °FMore clouds than sun.13 mph93%29.98 "Hg10 mi
10:35 am37 °FBroken clouds.10 mph100%29.98 "Hg10 mi
10:15 am37 °FScattered clouds.12 mph100%30.00 "Hg10 mi
9:55 am37 °FFog.17 mph100%29.99 "Hg4 mi
9:35 am37 °FFog.12 mph100%29.98 "Hg2 mi
9:15 am37 °FFog.13 mph100%29.99 "Hg3 mi
8:55 am37 °FFog.12 mph100%29.99 "Hg3 mi
7:35 am36 °FFog.12 mph100%29.99 "Hg2 mi
6:55 am36 °FFog.16 mph100%30.00 "Hg3 mi
6:15 am37 °FLow clouds.16 mph100%29.99 "Hg8 mi
Weather by CustomWeather, © 2020

See weather overview